Time;durP1;ratioP1;P1;durP2;ratioP2;P2;SDS_P1;SDS_P2;PMS_P1;PMS_P2;Temp;Humidity;BMP_temperature;BMP_pressure;BME280_temperature;BME280_humidity;BME280_pressure;Samples;Min_cycle;Max_cycle;Signal;HPM_P1;HPM_P2
2023/12/19 00:00:38;;;;;;;10.82;8.18;;;;;;;9.80;100.00;101343.72;5012848;28;20053;-50
2023/12/19 00:03:07;;;;;;;13.05;8.10;;;;;;;9.80;100.00;101348.41;5018832;28;20488;-49
2023/12/19 00:05:35;;;;;;;11.65;7.55;;;;;;;9.79;100.00;101355.91;5023721;28;20719;-50
2023/12/19 00:08:03;;;;;;;10.30;7.28;;;;;;;9.79;100.00;101353.13;5021650;28;20062;-49
2023/12/19 00:10:30;;;;;;;8.77;7.43;;;;;;;9.77;100.00;101354.59;5018702;28;20048;-50
2023/12/19 00:12:57;;;;;;;7.53;5.57;;;;;;;9.72;100.00;101346.47;5025233;28;20053;-49
2023/12/19 00:15:28;;;;;;;10.10;5.97;;;;;;;9.71;100.00;101347.63;5028623;28;20100;-51
2023/12/19 00:17:56;;;;;;;7.72;5.25;;;;;;;9.71;100.00;101356.72;5009214;28;20040;-48
2023/12/19 00:20:25;;;;;;;7.38;5.20;;;;;;;9.70;100.00;101359.81;5027801;28;20049;-48
2023/12/19 00:22:53;;;;;;;5.45;4.40;;;;;;;9.68;100.00;101362.91;5026133;28;20042;-51
2023/12/19 00:25:23;;;;;;;5.88;4.60;;;;;;;9.68;100.00;101362.09;5026989;28;20049;-48
2023/12/19 00:27:50;;;;;;;4.38;3.58;;;;;;;9.69;100.00;101352.63;5028054;28;20045;-52
2023/12/19 00:30:18;;;;;;;4.60;3.55;;;;;;;9.67;100.00;101355.75;5027435;28;20057;-49
2023/12/19 00:32:45;;;;;;;4.63;3.20;;;;;;;9.69;100.00;101353.47;5025190;28;20053;-48
2023/12/19 00:35:13;;;;;;;4.80;3.80;;;;;;;9.69;100.00;101355.41;5027519;28;20053;-51
2023/12/19 00:37:41;;;;;;;4.60;3.80;;;;;;;9.68;100.00;101353.78;5027824;28;20049;-56
2023/12/19 00:40:11;;;;;;;4.03;3.60;;;;;;;9.64;100.00;101361.09;5027840;28;20047;-50
2023/12/19 00:42:39;;;;;;;4.80;4.22;;;;;;;9.63;100.00;101356.72;5027656;28;20042;-50
2023/12/19 00:45:10;;;;;;;7.00;3.93;;;;;;;9.60;100.00;101349.06;5011164;28;20095;-47
2023/12/19 00:47:39;;;;;;;5.85;4.90;;;;;;;9.60;100.00;101347.13;5010164;28;20053;-48
2023/12/19 00:50:07;;;;;;;7.60;5.75;;;;;;;9.58;100.00;101346.63;5026992;28;20049;-49
2023/12/19 00:52:36;;;;;;;9.60;6.30;;;;;;;9.58;100.00;101352.16;5010734;28;20060;-47
2023/12/19 00:55:04;;;;;;;9.90;7.30;;;;;;;9.61;100.00;101356.25;5027634;28;20587;-51
2023/12/19 00:57:32;;;;;;;9.77;6.80;;;;;;;9.59;100.00;101355.72;5027219;28;20048;-50
2023/12/19 01:00:00;;;;;;;10.40;8.30;;;;;;;9.57;100.00;101335.88;5027567;28;20049;-51
2023/12/19 01:02:29;;;;;;;12.10;7.45;;;;;;;9.57;100.00;101333.94;5026888;28;20053;-55
2023/12/19 01:04:57;;;;;;;10.52;7.55;;;;;;;9.57;100.00;101333.13;5027642;28;20052;-49
2023/12/19 01:07:25;;;;;;;11.48;7.72;;;;;;;9.56;100.00;101337.84;5026903;28;20064;-52
2023/12/19 01:09:54;;;;;;;9.63;6.75;;;;;;;9.56;100.00;101326.78;5027257;28;20819;-52
2023/12/19 01:12:21;;;;;;;8.20;6.90;;;;;;;9.56;100.00;101323.19;5027219;28;20045;-49
2023/12/19 01:14:48;;;;;;;8.40;6.53;;;;;;;9.54;100.00;101320.78;5027737;28;20053;-52
2023/12/19 01:17:16;;;;;;;6.55;5.90;;;;;;;9.53;100.00;101329.41;5027309;28;20053;-52
2023/12/19 01:19:47;;;;;;;6.17;5.00;;;;;;;9.50;100.00;101327.28;5027154;28;20072;-49
2023/12/19 01:22:15;;;;;;;5.95;5.35;;;;;;;9.49;100.00;101326.47;5027184;28;20053;-52
2023/12/19 01:24:42;;;;;;;13.32;6.25;;;;;;;9.49;100.00;101318.16;5028265;28;20041;-51
2023/12/19 01:27:09;;;;;;;7.10;5.80;;;;;;;9.48;100.00;101319.28;5026807;28;20534;-49
2023/12/19 01:29:37;;;;;;;10.77;5.68;;;;;;;9.47;100.00;101311.34;5026188;28;20407;-52
2023/12/19 01:32:05;;;;;;;7.82;5.55;;;;;;;9.45;100.00;101319.94;5027020;28;20045;-48
2023/12/19 01:34:32;;;;;;;8.88;6.20;;;;;;;9.43;100.00;101326.94;5026826;28;20407;-53
2023/12/19 01:36:59;;;;;;;6.88;5.78;;;;;;;9.42;100.00;101319.78;5026559;28;20415;-49
2023/12/19 01:39:27;;;;;;;7.55;5.57;;;;;;;9.42;100.00;101317.03;5026204;28;20048;-51
2023/12/19 01:41:54;;;;;;;7.18;6.00;;;;;;;9.41;100.00;101307.09;5026526;28;20044;-49
2023/12/19 01:44:22;;;;;;;8.50;6.13;;;;;;;9.41;100.00;101313.44;5026425;28;20053;-50
2023/12/19 01:46:50;;;;;;;8.13;5.80;;;;;;;9.40;100.00;101297.19;5027115;28;20411;-51
2023/12/19 01:49:18;;;;;;;8.68;6.15;;;;;;;9.38;100.00;101302.22;5026370;28;20521;-51
2023/12/19 01:51:47;;;;;;;11.23;6.68;;;;;;;9.36;100.00;101310.03;5026455;28;20128;-48
2023/12/19 01:54:18;;;;;;;10.95;6.60;;;;;;;9.35;100.00;101302.84;5026255;28;20049;-54
2023/12/19 01:56:45;;;;;;;11.63;5.72;;;;;;;9.34;100.00;101310.34;5026287;28;20064;-49
2023/12/19 01:59:13;;;;;;;9.50;6.70;;;;;;;9.37;100.00;101306.13;5026179;28;20033;-52
2023/12/19 02:01:42;;;;;;;9.48;5.65;;;;;;;9.38;100.00;101313.25;5025931;28;20064;-49
2023/12/19 02:04:11;;;;;;;36.05;7.50;;;;;;;9.36;100.00;101304.50;5026710;28;20045;-47
2023/12/19 02:06:39;;;;;;;9.00;6.40;;;;;;;9.36;100.00;101304.50;5009171;28;20570;-53
2023/12/19 02:09:06;;;;;;;8.57;6.05;;;;;;;9.34;100.00;101295.72;5030247;28;20058;-50
2023/12/19 02:11:34;;;;;;;10.80;6.32;;;;;;;9.34;100.00;101295.72;5030137;28;20049;-49
2023/12/19 02:14:01;;;;;;;14.32;5.60;;;;;;;9.36;100.00;101293.44;5026744;28;20491;-52
2023/12/19 02:16:28;;;;;;;7.97;6.25;;;;;;;9.33;100.00;101297.66;5029395;28;20053;-52
2023/12/19 02:19:05;;;;;;;9.50;6.07;;;;;;;9.34;100.00;101293.78;5030554;28;20053;-49
2023/12/19 02:21:34;;;;;;;9.35;5.65;;;;;;;9.36;100.00;101288.72;5012810;28;20049;-47
2023/12/19 02:24:02;;;;;;;9.02;6.30;;;;;;;9.38;100.00;101303.03;5030454;28;20764;-48
2023/12/19 02:26:29;;;;;;;12.77;7.80;;;;;;;9.34;100.00;101296.53;5013798;28;20392;-49
2023/12/19 02:28:56;;;;;;;7.55;6.07;;;;;;;9.36;100.00;101296.22;5030293;28;20046;-50
2023/12/19 02:31:24;;;;;;;9.90;6.57;;;;;;;9.37;100.00;101295.09;5029834;28;20059;-50
2023/12/19 02:33:51;;;;;;;8.85;6.68;;;;;;;9.38;100.00;101285.63;5029894;28;20041;-50
2023/12/19 02:36:18;;;;;;;11.35;7.60;;;;;;;9.38;100.00;101291.16;5029215;28;20103;-54
2023/12/19 02:38:47;;;;;;;10.48;7.05;;;;;;;9.40;100.00;101291.69;5025662;28;20041;-52
2023/12/19 02:41:14;;;;;;;10.70;6.60;;;;;;;9.40;100.00;101292.47;5029370;28;20045;-49
2023/12/19 02:43:42;;;;;;;10.25;6.68;;;;;;;9.38;100.00;101285.63;5029366;28;20060;-49
2023/12/19 02:46:22;;;;;;;11.80;6.60;;;;;;;9.39;100.00;101284.50;5028742;28;20410;-49
2023/12/19 02:48:50;;;;;;;11.45;7.03;;;;;;;9.38;100.00;101275.41;5029290;28;20057;-52
2023/12/19 02:51:19;;;;;;;10.90;6.72;;;;;;;9.41;100.00;101279.47;5026390;28;20411;-51
2023/12/19 02:53:47;;;;;;;9.52;5.80;;;;;;;9.41;100.00;101287.75;5011573;28;20058;-48
2023/12/19 02:56:14;;;;;;;8.38;5.18;;;;;;;9.37;100.00;101290.34;5029094;28;20045;-50
2023/12/19 02:58:42;;;;;;;9.73;5.63;;;;;;;9.36;100.00;101293.44;5028076;28;20049;-51
2023/12/19 03:01:10;;;;;;;7.10;5.38;;;;;;;9.35;100.00;101292.63;5125286;22;20049;-55
2023/12/19 03:03:41;;;;;;;10.48;4.35;;;;;;;9.31;100.00;101296.38;5029145;28;20054;-55
2023/12/19 03:06:09;;;;;;;11.55;4.90;;;;;;;9.30;100.00;101294.72;5028514;28;20049;-49
2023/12/19 03:08:37;;;;;;;5.93;4.40;;;;;;;9.28;100.00;101297.00;5029167;28;20049;-53
2023/12/19 03:11:05;;;;;;;8.18;4.70;;;;;;;9.29;100.00;101304.16;5029209;28;20553;-51
2023/12/19 03:13:32;;;;;;;7.22;3.78;;;;;;;9.29;100.00;101304.16;5028950;28;20038;-53
2023/12/19 03:16:00;;;;;;;11.55;4.25;;;;;;;9.27;100.00;101295.38;5029231;28;20056;-51
2023/12/19 03:18:28;;;;;;;6.25;3.17;;;;;;;9.24;100.00;101290.50;5028085;28;20046;-51
2023/12/19 03:20:56;;;;;;;7.93;3.30;;;;;;;9.24;100.00;101301.56;5027743;28;20046;-51
2023/12/19 03:23:24;;;;;;;4.90;3.15;;;;;;;9.24;100.00;101294.06;5028700;28;20046;-52
2023/12/19 03:25:51;;;;;;;6.78;3.60;;;;;;;9.22;100.00;101293.59;5013590;28;20053;-48
2023/12/19 03:28:18;;;;;;;10.57;2.97;;;;;;;9.22;100.00;101287.22;5028384;28;20407;-48
2023/12/19 03:30:47;;;;;;;6.97;3.65;;;;;;;9.21;100.00;101280.09;5029542;28;20069;-51
2023/12/19 03:33:14;;;;;;;7.07;3.45;;;;;;;9.22;100.00;101277.00;5028242;28;20414;-50
2023/12/19 03:35:41;;;;;;;6.50;2.90;;;;;;;9.24;100.00;101274.72;5028485;28;20053;-48
2023/12/19 03:38:09;;;;;;;6.68;3.25;;;;;;;9.27;100.00;101284.31;5028057;28;20053;-51
2023/12/19 03:40:37;;;;;;;5.07;3.17;;;;;;;9.25;100.00;101278.31;5028451;28;20064;-53
2023/12/19 03:43:05;;;;;;;3.72;2.63;;;;;;;9.25;100.00;101281.88;5028681;28;20053;-48
2023/12/19 03:45:32;;;;;;;5.47;2.65;;;;;;;9.25;100.00;101281.06;5027869;28;20068;-50
2023/12/19 03:48:00;;;;;;;4.47;2.45;;;;;;;9.21;100.00;101283.69;5023790;28;20056;-51
2023/12/19 03:50:27;;;;;;;4.18;2.55;;;;;;;9.18;100.00;101293.44;5028502;28;20042;-48
2023/12/19 03:52:54;;;;;;;3.40;1.75;;;;;;;9.17;100.00;101280.75;5028114;28;20046;-52
2023/12/19 03:55:22;;;;;;;3.80;2.15;;;;;;;9.18;100.00;101282.38;5010201;28;20054;-50
2023/12/19 03:57:49;;;;;;;1.90;1.70;;;;;;;9.21;100.00;101285.63;5026537;28;20057;-47
2023/12/19 04:00:18;;;;;;;7.93;4.00;;;;;;;9.18;100.00;101265.81;5027793;28;21706;-49
2023/12/19 04:02:45;;;;;;;1.67;1.58;;;;;;;9.21;100.00;101263.53;5028310;28;20057;-50
2023/12/19 04:05:13;;;;;;;2.05;1.83;;;;;;;9.21;100.00;101275.41;5024916;28;20070;-50
2023/12/19 04:07:40;;;;;;;4.50;1.50;;;;;;;9.19;100.00;101272.13;5027437;28;20729;-56
2023/12/19 04:10:09;;;;;;;3.67;1.95;;;;;;;9.19;100.00;101274.88;5028089;28;20503;-52
2023/12/19 04:12:36;;;;;;;3.67;2.90;;;;;;;9.17;100.00;101289.03;5027651;28;20042;-51
2023/12/19 04:15:04;;;;;;;7.22;2.10;;;;;;;9.14;100.00;101278.63;5027898;28;20053;-48
2023/12/19 04:17:31;;;;;;;3.67;2.08;;;;;;;9.11;100.00;101264.63;4982211;28;20056;-50
2023/12/19 04:19:58;;;;;;;8.55;2.65;;;;;;;9.09;100.00;101277.97;5027081;28;20507;-48
2023/12/19 04:22:26;;;;;;;4.75;2.20;;;;;;;9.07;100.00;101289.34;5027272;28;20045;-50
2023/12/19 04:24:53;;;;;;;4.80;2.28;;;;;;;9.05;100.00;101288.81;5029458;28;20486;-51
2023/12/19 04:27:21;;;;;;;4.25;1.80;;;;;;;9.01;100.00;101287.84;5028577;28;20518;-49
2023/12/19 04:29:50;;;;;;;12.60;2.67;;;;;;;9.01;100.00;101295.31;5027697;28;20052;-48
2023/12/19 04:32:22;;;;;;;5.57;1.30;;;;;;;8.94;100.00;101298.56;5026808;28;20064;-51
2023/12/19 04:34:50;;;;;;;1.30;0.90;;;;;;;8.85;100.00;101294.97;5027620;28;20530;-48
2023/12/19 04:37:17;;;;;;;1.35;0.50;;;;;;;8.78;100.00;101308.44;5027995;28;20049;-48
2023/12/19 04:39:44;;;;;;;0.93;0.70;;;;;;;8.74;100.00;101293.63;5027626;28;20108;-53
2023/12/19 04:42:17;;;;;;;2.83;0.45;;;;;;;8.65;100.00;101305.78;5028282;28;20045;-48
2023/12/19 04:44:46;;;;;;;1.67;0.90;;;;;;;8.57;100.00;101310.94;5027742;28;20045;-50
2023/12/19 04:47:14;;;;;;;1.58;0.57;;;;;;;8.55;100.00;101307.66;5027188;28;20418;-53
2023/12/19 04:49:42;;;;;;;1.80;1.38;;;;;;;8.53;100.00;101317.41;5027790;28;20044;-51
2023/12/19 04:52:10;;;;;;;1.45;0.70;;;;;;;8.53;100.00;101322.91;5027873;28;20434;-48
2023/12/19 04:54:37;;;;;;;4.47;1.08;;;;;;;8.49;100.00;101319.19;5027072;28;20034;-48
2023/12/19 04:57:05;;;;;;;1.25;0.70;;;;;;;8.45;100.00;101312.66;5024916;28;20052;-47
2023/12/19 04:59:33;;;;;;;3.42;0.55;;;;;;;8.45;100.00;101301.63;5024924;28;20426;-48
2023/12/19 05:02:00;;;;;;;1.75;0.55;;;;;;;8.42;100.00;101313.28;5027703;28;20501;-53
2023/12/19 05:04:28;;;;;;;4.75;0.38;;;;;;;8.40;100.00;101332.94;5026351;28;20646;-49
2023/12/19 05:06:55;;;;;;;0.98;0.30;;;;;;;8.39;100.00;101336.81;5027368;28;20065;-49
2023/12/19 05:09:23;;;;;;;3.97;0.90;;;;;;;8.38;100.00;101326.09;5026804;28;20103;-50
2023/12/19 05:11:50;;;;;;;0.57;0.30;;;;;;;8.34;100.00;101327.88;5027423;28;20474;-48
2023/12/19 05:14:17;;;;;;;4.13;0.50;;;;;;;8.32;100.00;101341.16;5026139;28;20045;-49
2023/12/19 05:16:45;;;;;;;4.85;0.60;;;;;;;8.27;100.00;101344.03;5024841;28;20511;-47
2023/12/19 05:19:12;;;;;;;1.55;1.13;;;;;;;8.24;100.00;101345.44;5027390;28;20068;-51
2023/12/19 05:21:40;;;;;;;3.25;0.30;;;;;;;8.24;100.00;101345.44;5026893;28;20068;-47
2023/12/19 05:24:09;;;;;;;2.78;0.90;;;;;;;8.23;100.00;101352.13;5010515;28;20052;-48
2023/12/19 05:26:37;;;;;;;2.80;0.60;;;;;;;8.22;100.00;101341.38;5028966;28;20561;-51
2023/12/19 05:29:05;;;;;;;3.20;0.70;;;;;;;8.20;100.00;101357.44;4996974;28;20073;-47
2023/12/19 05:31:32;;;;;;;4.03;0.40;;;;;;;8.22;100.00;101335.88;5009537;28;20084;-51
2023/12/19 05:33:59;;;;;;;4.60;1.00;;;;;;;8.26;100.00;101336.88;5026744;28;20049;-51
2023/12/19 05:36:27;;;;;;;5.50;1.00;;;;;;;8.28;100.00;101334.66;5026401;28;20056;-50
2023/12/19 05:38:55;;;;;;;9.38;2.15;;;;;;;8.27;100.00;101322.78;5009116;28;20057;-50
2023/12/19 05:41:22;;;;;;;26.45;2.05;;;;;;;8.26;100.00;101317.56;5024854;28;20052;-47
2023/12/19 05:43:49;;;;;;;2.72;0.60;;;;;;;8.29;100.00;101320.53;5025700;28;20064;-49
2023/12/19 05:46:17;;;;;;;3.72;0.70;;;;;;;8.29;100.00;101325.22;5026909;28;20053;-52
2023/12/19 05:48:44;;;;;;;3.63;1.42;;;;;;;8.28;100.00;101323.63;5026799;28;20044;-48
2023/12/19 05:51:12;;;;;;;3.35;0.82;;;;;;;8.27;100.00;101338.53;5025770;28;20049;-49
2023/12/19 05:53:39;;;;;;;6.55;0.75;;;;;;;8.24;100.00;101328.91;5026395;28;20049;-50
2023/12/19 05:56:12;;;;;;;3.40;0.80;;;;;;;8.24;100.00;101328.91;5023337;28;20046;-48
2023/12/19 05:58:39;;;;;;;4.72;1.42;;;;;;;8.22;100.00;101330.34;5026806;28;20052;-49
2023/12/19 06:01:06;;;;;;;0.98;0.35;;;;;;;8.19;100.00;101339.25;5026424;28;20411;-52
2023/12/19 06:03:34;;;;;;;3.28;0.85;;;;;;;8.17;100.00;101353.38;5026245;28;20061;-49
2023/12/19 06:06:01;;;;;;;5.85;0.70;;;;;;;8.16;100.00;101342.63;5026466;28;20053;-52
2023/12/19 06:08:29;;;;;;;3.15;1.27;;;;;;;8.18;100.00;101348.66;5026434;28;20053;-49
2023/12/19 06:10:56;;;;;;;3.20;0.65;;;;;;;8.18;100.00;101362.47;5026294;28;20045;-49
2023/12/19 06:13:29;;;;;;;3.50;0.65;;;;;;;8.17;100.00;101360.81;5026499;28;20487;-51
2023/12/19 06:15:56;;;;;;;2.55;1.05;;;;;;;8.17;100.00;101366.34;5025668;28;20054;-47
2023/12/19 06:18:23;;;;;;;2.97;1.02;;;;;;;8.19;100.00;101359.38;5026299;28;20403;-52
2023/12/19 06:20:51;;;;;;;9.27;2.05;;;;;;;8.19;100.00;101358.56;5027109;28;20056;-48
2023/12/19 06:23:19;;;;;;;4.55;0.75;;;;;;;8.21;100.00;101356.28;5026671;28;20519;-47
2023/12/19 06:25:47;;;;;;;4.95;1.77;;;;;;;8.24;100.00;101366.69;5033949;28;20046;-51
2023/12/19 06:28:17;;;;;;;6.55;0.90;;;;;;;8.22;100.00;101367.03;5026433;28;20053;-54
2023/12/19 06:30:44;;;;;;;4.30;0.90;;;;;;;8.20;100.00;101369.28;5027325;28;20664;-51
2023/12/19 06:33:12;;;;;;;2.58;0.40;;;;;;;8.15;100.00;101363.09;5008926;28;20415;-50
2023/12/19 06:35:41;;;;;;;12.40;2.05;;;;;;;8.15;100.00;101368.59;5025340;28;20641;-52
2023/12/19 06:38:08;;;;;;;3.33;0.82;;;;;;;8.14;100.00;101375.22;5026521;28;20049;-49
2023/12/19 06:40:36;;;;;;;6.22;1.23;;;;;;;8.09;100.00;101381.69;5025507;28;20065;-49
2023/12/19 06:43:05;;;;;;;7.03;1.00;;;;;;;8.07;100.00;101383.97;5026358;28;20115;-52
2023/12/19 06:45:33;;;;;;;6.35;0.95;;;;;;;8.09;100.00;101378.94;5026646;28;20691;-48
2023/12/19 06:48:01;;;;;;;10.32;1.27;;;;;;;8.09;100.00;101391.91;5024936;28;20045;-48
2023/12/19 06:50:29;;;;;;;6.78;0.93;;;;;;;8.09;100.00;101403.75;5024669;28;20057;-50
2023/12/19 06:52:57;;;;;;;2.25;0.70;;;;;;;8.06;100.00;101404.38;5026305;28;20038;-54
2023/12/19 06:55:25;;;;;;;6.00;0.82;;;;;;;8.03;100.00;101406.94;5029911;28;20515;-49
2023/12/19 06:57:55;;;;;;;4.95;0.90;;;;;;;7.95;100.00;101409.31;5030074;28;20376;-50
2023/12/19 07:00:22;;;;;;;5.88;1.17;;;;;;;7.93;100.00;101413.50;5029098;28;20046;-52
2023/12/19 07:02:50;;;;;;;3.60;1.25;;;;;;;7.88;100.00;101414.47;5029546;28;20060;-51
2023/12/19 07:05:17;;;;;;;5.82;1.13;;;;;;;7.85;100.00;101426.09;5029364;28;20057;-50
2023/12/19 07:07:47;;;;;;;8.13;0.90;;;;;;;7.82;100.00;101425.91;5029502;28;20056;-48
2023/12/19 07:10:15;;;;;;;4.72;1.00;;;;;;;7.78;100.00;101424.91;5029732;28;20590;-50
2023/12/19 07:12:43;;;;;;;8.75;1.13;;;;;;;7.78;100.00;101420.19;5029637;28;20045;-49
2023/12/19 07:15:10;;;;;;;6.90;1.27;;;;;;;7.76;100.00;101416.91;5028885;28;20442;-51
2023/12/19 07:17:38;;;;;;;4.95;1.02;;;;;;;7.74;100.00;101419.19;5029058;28;20045;-49
2023/12/19 07:20:07;;;;;;;4.03;0.85;;;;;;;7.71;100.00;101411.53;5028690;28;20057;-54
2023/12/19 07:22:35;;;;;;;12.02;2.08;;;;;;;7.67;100.00;101409.72;5006164;28;20045;-49
2023/12/19 07:25:03;;;;;;;5.43;0.90;;;;;;;7.67;100.00;101413.28;5031453;28;22122;-51
2023/12/19 07:27:31;;;;;;;10.48;1.52;;;;;;;7.66;100.00;101414.41;5016296;28;20046;-51
2023/12/19 07:30:05;;;;;;;6.57;1.20;;;;;;;7.61;100.00;101420.03;5027410;28;20041;-48
2023/12/19 07:32:33;;;;;;;6.00;1.40;;;;;;;7.59;100.00;101432.47;5028818;28;20045;-54
2023/12/19 07:35:00;;;;;;;3.60;0.85;;;;;;;7.56;100.00;101431.16;5010450;28;20049;-49
2023/12/19 07:37:28;;;;;;;3.22;1.00;;;;;;;7.56;100.00;101438.59;5029127;28;20392;-50
2023/12/19 07:39:55;;;;;;;8.75;1.42;;;;;;;7.53;100.00;101419.94;5026939;28;20546;-49
2023/12/19 07:42:23;;;;;;;8.80;1.23;;;;;;;7.50;100.00;101407.59;5029089;28;20049;-51
2023/12/19 07:44:51;;;;;;;7.55;1.02;;;;;;;7.48;100.00;101417.28;5029079;28;20060;-50
2023/12/19 07:47:19;;;;;;;4.13;0.88;;;;;;;7.47;100.00;101419.22;5028342;28;20484;-51
2023/12/19 07:49:46;;;;;;;4.18;0.80;;;;;;;7.45;100.00;101440.75;5011741;28;20060;-50
2023/12/19 07:52:14;;;;;;;4.60;1.10;;;;;;;7.42;100.00;101443.31;5011386;28;20040;-47
2023/12/19 07:54:41;;;;;;;9.43;1.25;;;;;;;7.42;100.00;101432.28;5028818;28;20038;-48
2023/12/19 07:57:09;;;;;;;5.43;1.33;;;;;;;7.38;100.00;101437.59;5026605;28;20057;-48
2023/12/19 07:59:37;;;;;;;15.52;2.53;;;;;;;7.40;100.00;101440.88;5027313;28;20055;-50
2023/12/19 08:02:06;;;;;;;8.98;1.17;;;;;;;7.38;100.00;101436.78;5028983;28;20080;-51
2023/12/19 08:04:35;;;;;;;4.47;0.90;;;;;;;7.32;100.00;101425.06;5027583;28;20053;-49
2023/12/19 08:07:03;;;;;;;8.25;1.33;;;;;;;7.29;100.00;101433.94;5028337;28;20045;-50
2023/12/19 08:09:31;;;;;;;9.68;1.80;;;;;;;7.26;100.00;101423.53;5027703;28;20038;-46
2023/12/19 08:11:58;;;;;;;4.18;1.10;;;;;;;7.27;100.00;101427.91;5010599;28;20057;-52
2023/12/19 08:14:27;;;;;;;7.40;1.27;;;;;;;7.23;100.00;101430.47;5028647;28;20045;-51
2023/12/19 08:16:54;;;;;;;8.95;1.00;;;;;;;7.18;100.00;101438.00;5028455;28;20423;-47
2023/12/19 08:19:22;;;;;;;5.32;1.17;;;;;;;7.18;100.00;101449.03;5009888;28;20049;-48
2023/12/19 08:21:54;;;;;;;6.85;1.98;;;;;;;7.14;100.00;101448.00;5028400;28;20056;-50
2023/12/19 08:24:22;;;;;;;4.50;1.58;;;;;;;7.10;100.00;101444.22;5014130;28;20511;-46
2023/12/19 08:26:50;;;;;;;4.32;1.25;;;;;;;7.05;100.00;101436.06;5033532;28;20140;-51
2023/12/19 08:29:18;;;;;;;8.25;1.00;;;;;;;7.06;100.00;101446.78;5014443;28;20589;-47
2023/12/19 08:31:46;;;;;;;6.65;1.05;;;;;;;7.03;100.00;101452.06;5021472;28;20061;-48
2023/12/19 08:34:17;;;;;;;5.22;1.40;;;;;;;7.00;100.00;101452.69;5026335;28;20128;-47
2023/12/19 08:36:44;;;;;;;5.13;1.38;;;;;;;6.95;100.00;101463.78;5022318;28;20045;-47
2023/12/19 08:39:12;;;;;;;4.40;1.42;;;;;;;6.94;100.00;101459.38;5022499;28;20047;-50
2023/12/19 08:41:45;;;;;;;5.68;1.40;;;;;;;6.91;100.00;101457.28;5024290;28;20045;-49
2023/12/19 08:44:12;;;;;;;12.70;2.80;;;;;;;6.84;100.00;101454.91;5027283;28;20402;-47
2023/12/19 08:46:39;;;;;;;7.72;1.92;;;;;;;6.81;100.00;101454.69;5009141;28;20104;-47
2023/12/19 08:49:07;;;;;;;4.32;1.15;;;;;;;6.77;100.00;101464.66;5027153;28;20041;-47
2023/12/19 08:51:34;;;;;;;7.30;3.05;;;;;;;6.75;100.00;101453.97;5021749;28;20049;-49
2023/12/19 08:54:02;;;;;;;10.82;1.98;;;;;;;6.71;100.00;101456.50;5016341;28;20064;-47
2023/12/19 08:56:30;;;;;;;8.13;1.25;;;;;;;6.68;100.00;101457.09;5022547;28;20044;-50
2023/12/19 08:58:58;;;;;;;8.13;2.05;;;;;;;6.63;100.00;101470.97;5023337;28;20053;-48
2023/12/19 09:01:26;;;;;;;6.15;1.50;;;;;;;6.58;100.00;101468.28;5023721;28;20065;-47
2023/12/19 09:03:54;;;;;;;8.98;2.10;;;;;;;6.55;100.00;101466.13;5027533;28;20041;-49
2023/12/19 09:06:21;;;;;;;7.18;0.98;;;;;;;6.54;100.00;101474.72;5027078;28;20055;-48
2023/12/19 09:08:49;;;;;;;6.05;1.75;;;;;;;6.51;100.00;101473.34;5024094;28;20511;-47
2023/12/19 09:11:16;;;;;;;14.13;1.73;;;;;;;6.48;100.00;101468.47;5026136;28;20041;-54
2023/12/19 09:13:44;;;;;;;7.20;1.70;;;;;;;6.45;100.00;101477.31;5027222;28;20416;-51
2023/12/19 09:16:11;;;;;;;7.75;1.40;;;;;;;6.43;100.00;101473.22;5026441;28;20049;-50
2023/12/19 09:18:39;;;;;;;9.57;2.10;;;;;;;6.44;100.00;101477.59;5026166;28;20053;-51
2023/12/19 09:21:07;;;;;;;8.80;1.77;;;;;;;6.40;100.00;101485.66;5009207;28;20052;-49
2023/12/19 09:23:34;;;;;;;7.30;1.67;;;;;;;6.37;100.00;101483.50;5026992;28;20055;-49
2023/12/19 09:26:04;;;;;;;9.50;1.23;;;;;;;6.37;100.00;101483.50;5025744;28;20037;-52
2023/12/19 09:28:32;;;;;;;10.35;1.85;;;;;;;6.35;100.00;101491.25;5025825;28;20037;-49
2023/12/19 09:31:00;;;;;;;10.80;1.27;;;;;;;6.34;100.00;101484.09;5025782;28;20046;-47
2023/12/19 09:33:28;;;;;;;13.13;1.83;;;;;;;6.33;100.00;101489.91;5025447;28;20061;-49
2023/12/19 09:35:55;;;;;;;9.00;1.13;;;;;;;6.27;100.00;101483.66;5026693;28;20044;-49
2023/12/19 09:38:23;;;;;;;6.45;1.35;;;;;;;6.24;100.00;101489.75;5024248;28;20041;-48
2023/12/19 09:40:50;;;;;;;8.27;1.30;;;;;;;6.24;100.00;101480.69;5026703;28;20045;-47
2023/12/19 09:43:17;;;;;;;9.80;1.42;;;;;;;6.23;100.00;101479.84;5020622;28;20057;-50
2023/12/19 09:45:48;;;;;;;13.98;1.83;;;;;;;6.21;100.00;101484.84;5025788;28;20117;-51
2023/12/19 09:48:15;;;;;;;18.42;3.20;;;;;;;6.24;100.00;101478.75;5025958;28;20057;-53
2023/12/19 09:50:45;;;;;;;7.97;1.33;;;;;;;6.26;100.00;101471.00;5025909;28;20554;-50
2023/12/19 09:53:14;;;;;;;6.30;1.90;;;;;;;6.28;100.00;101474.28;5027309;28;20081;-48
2023/12/19 09:55:44;;;;;;;4.05;1.10;;;;;;;6.29;100.00;101470.41;5026940;28;20045;-47
2023/12/19 09:58:12;;;;;;;4.35;1.27;;;;;;;6.31;100.00;101483.84;5025674;28;20049;-47
2023/12/19 10:00:44;;;;;;;8.75;1.23;;;;;;;6.31;100.00;101484.69;5026657;28;20053;-49
2023/12/19 10:03:13;;;;;;;4.05;1.25;;;;;;;6.30;100.00;101485.00;5023442;28;20526;-48
2023/12/19 10:05:43;;;;;;;12.32;1.45;;;;;;;6.33;100.00;101485.19;5019341;28;20049;-49
2023/12/19 10:08:11;;;;;;;9.32;1.40;;;;;;;6.35;100.00;101476.66;5022544;28;20041;-47
2023/12/19 10:10:55;;;;;;;5.28;1.58;;;;;;;6.36;100.00;101478.28;5026137;28;20076;-48
2023/12/19 10:13:28;;;;;;;7.75;1.42;;;;;;;6.36;100.00;101476.34;5025177;28;20053;-49
2023/12/19 10:16:04;;;;;;;12.43;2.17;;;;;;;6.36;100.00;101472.78;5022926;28;20529;-48
2023/12/19 10:18:56;;;;;;;4.30;1.70;;;;;;;6.35;100.00;101480.22;5025337;28;20050;-47
2023/12/19 10:21:28;;;;;;;7.65;1.67;;;;;;;6.37;100.00;101477.16;5025706;28;20052;-48
2023/12/19 10:24:07;;;;;;;7.90;1.52;;;;;;;6.36;100.00;101483.78;5026011;28;20060;-50
2023/12/19 10:26:36;;;;;;;6.85;1.92;;;;;;;6.37;100.00;101482.69;5025393;28;20529;-47
2023/12/19 10:29:04;;;;;;;8.25;1.67;;;;;;;6.36;100.00;101475.53;5028621;28;20041;-50
2023/12/19 10:31:34;;;;;;;9.05;2.97;;;;;;;6.36;100.00;101492.03;5025077;28;20113;-49
2023/12/19 10:34:04;;;;;;;9.35;1.50;;;;;;;6.34;100.00;101475.84;5029067;28;20046;-51
2023/12/19 10:36:32;;;;;;;7.20;1.38;;;;;;;6.35;100.00;101480.22;5029073;28;20752;-47
2023/12/19 10:39:02;;;;;;;6.53;1.90;;;;;;;6.40;100.00;101482.91;5022958;28;20049;-52
2023/12/19 10:41:33;;;;;;;8.07;3.42;;;;;;;6.41;100.00;101481.78;5028236;28;20045;-46
2023/12/19 10:44:01;;;;;;;13.43;3.00;;;;;;;6.45;100.00;101488.31;5029073;28;20818;-52
2023/12/19 10:46:32;;;;;;;9.32;2.97;;;;;;;6.45;100.00;101496.56;5028695;28;20076;-47
2023/12/19 10:49:02;;;;;;;15.27;3.03;;;;;;;6.47;100.00;101494.34;5028750;28;20710;-51
2023/12/19 10:51:33;;;;;;;7.32;1.83;;;;;;;6.50;100.00;101504.75;5010519;28;20053;-50
2023/12/19 10:54:15;;;;;;;5.93;1.33;;;;;;;6.51;100.00;101491.81;5011191;28;20049;-49
2023/12/19 10:56:45;;;;;;;8.63;2.15;;;;;;;6.51;100.00;101487.09;5025947;28;20053;-47
2023/12/19 10:59:38;;;;;;;6.13;1.10;;;;;;;6.52;100.00;101497.00;5028819;28;20049;-49
2023/12/19 11:02:47;;;;;;;8.80;2.10;;;;;;;6.55;100.00;101499.16;5018237;28;20065;-49
2023/12/19 11:05:28;;;;;;;3.13;1.40;;;;;;;6.57;100.00;101491.41;5026846;28;20547;-47
2023/12/19 11:08:03;;;;;;;5.85;1.80;;;;;;;6.57;100.00;101494.16;5028588;28;20080;-48
2023/12/19 11:10:36;;;;;;;4.80;1.35;;;;;;;6.62;100.00;101479.50;5027207;28;20057;-49
2023/12/19 11:13:04;;;;;;;14.88;1.20;;;;;;;6.65;100.00;101489.91;5029693;28;20044;-51
2023/12/19 11:15:34;;;;;;;5.60;1.42;;;;;;;6.67;100.00;101493.97;5028236;28;20657;-51
2023/12/19 11:18:12;;;;;;;7.45;1.55;;;;;;;6.73;100.00;101480.97;5028628;28;20049;-50
2023/12/19 11:20:45;;;;;;;9.98;2.03;;;;;;;6.75;100.00;101489.75;5028564;28;20049;-49
2023/12/19 11:23:35;;;;;;;7.93;2.17;;;;;;;6.75;100.00;101485.03;5028502;28;20045;-48
2023/12/19 11:26:17;;;;;;;9.00;1.60;;;;;;;6.79;100.00;101493.53;5023833;28;20741;-49
2023/12/19 11:28:45;;;;;;;12.40;2.25;;;;;;;6.79;100.00;101485.25;5028291;28;20053;-48
2023/12/19 11:31:42;;;;;;;14.50;3.47;;;;;;;6.82;100.00;101483.84;5028424;28;20504;-48